Time;durP1;ratioP1;P1;durP2;ratioP2;P2;SDS_P1;SDS_P2;PMS_P1;PMS_P2;Temp;Humidity;BMP_temperature;BMP_pressure;BME280_temperature;BME280_humidity;BME280_pressure;Samples;Min_cycle;Max_cycle;Signal;HPM_P1;HPM_P2
2023/07/09 00:00:52;;;;;;;0.00;0.00;;;;;;;;;;5079387;28;20302;-70
2023/07/09 00:03:20;;;;;;;0.00;0.00;;;;;;;;;;5095329;28;20450;-70
2023/07/09 00:05:48;;;;;;;0.00;0.00;;;;;;;;;;5079179;28;20251;-70
2023/07/09 00:08:22;;;;;;;0.00;0.00;;;;;;;;;;5095015;28;20242;-70
2023/07/09 00:10:48;;;;;;;0.00;0.00;;;;;;;;;;5079685;28;20501;-70
2023/07/09 00:13:15;;;;;;;0.00;0.00;;;;;;;;;;5094905;28;20559;-71
2023/07/09 00:15:41;;;;;;;0.00;0.00;;;;;;;;;;5078493;28;20511;-70
2023/07/09 00:18:08;;;;;;;0.10;0.10;;;;;;;;;;5095951;28;20237;-71
2023/07/09 00:20:36;;;;;;;0.15;0.15;;;;;;;;;;5077655;28;20238;-71
2023/07/09 00:23:04;;;;;;;0.00;0.00;;;;;;;;;;5096470;28;20444;-71
2023/07/09 00:25:31;;;;;;;0.00;0.00;;;;;;;;;;5077066;28;20302;-71
2023/07/09 00:27:57;;;;;;;0.00;0.00;;;;;;;;;;5096938;28;20191;-71
2023/07/09 00:30:24;;;;;;;0.08;0.08;;;;;;;;;;5076143;28;20207;-71
2023/07/09 00:32:52;;;;;;;0.00;0.00;;;;;;;;;;5097816;28;20378;-71
2023/07/09 00:35:18;;;;;;;0.00;0.00;;;;;;;;;;5075228;28;20228;-71
2023/07/09 00:37:47;;;;;;;0.10;0.10;;;;;;;;;;5098470;28;20259;-70
2023/07/09 00:40:18;;;;;;;0.00;0.00;;;;;;;;;;5074771;28;20444;-71
2023/07/09 00:42:45;;;;;;;0.00;0.00;;;;;;;;;;5098404;28;20262;-71
2023/07/09 00:45:18;;;;;;;0.00;0.00;;;;;;;;;;5074328;28;20207;-71
2023/07/09 00:47:45;;;;;;;0.00;0.00;;;;;;;;;;5098292;28;20192;-71
2023/07/09 00:50:17;;;;;;;0.00;0.00;;;;;;;;;;5074287;28;20203;-71
2023/07/09 00:52:48;;;;;;;0.00;0.00;;;;;;;;;;5098402;28;20192;-71
2023/07/09 00:55:16;;;;;;;0.00;0.00;;;;;;;;;;5074407;28;20238;-71
2023/07/09 00:57:43;;;;;;;0.00;0.00;;;;;;;;;;5098196;28;20234;-71
2023/07/09 01:00:14;;;;;;;0.00;0.00;;;;;;;;;;5074098;28;20298;-71
2023/07/09 01:02:43;;;;;;;0.00;0.00;;;;;;;;;;5098724;28;20198;-71
2023/07/09 01:05:11;;;;;;;0.03;0.03;;;;;;;;;;5073514;28;20496;-71
2023/07/09 01:07:38;;;;;;;0.00;0.00;;;;;;;;;;5098300;28;20263;-71
2023/07/09 01:10:06;;;;;;;0.00;0.00;;;;;;;;;;5083450;28;20278;-71
2023/07/09 01:12:33;;;;;;;0.00;0.00;;;;;;;;;;5072092;28;20230;-71
2023/07/09 01:14:59;;;;;;;0.00;0.00;;;;;;;;;;5083795;28;20294;-70
2023/07/09 01:17:27;;;;;;;0.00;0.00;;;;;;;;;;5088877;28;20245;-71
2023/07/09 01:19:54;;;;;;;0.00;0.00;;;;;;;;;;5083840;28;20496;-70
2023/07/09 01:22:23;;;;;;;0.03;0.03;;;;;;;;;;5088951;28;20234;-71
2023/07/09 01:24:50;;;;;;;0.00;0.00;;;;;;;;;;5083797;28;20274;-71
2023/07/09 01:27:18;;;;;;;0.00;0.00;;;;;;;;;;5088779;28;20245;-71
2023/07/09 01:29:48;;;;;;;0.00;0.00;;;;;;;;;;5083467;28;20207;-71
2023/07/09 01:32:15;;;;;;;0.00;0.00;;;;;;;;;;5088752;28;20440;-71
2023/07/09 01:34:42;;;;;;;0.00;0.00;;;;;;;;;;5083607;28;20237;-70
2023/07/09 01:37:09;;;;;;;0.10;0.10;;;;;;;;;;5088673;28;20263;-71
2023/07/09 01:39:36;;;;;;;0.08;0.08;;;;;;;;;;5083608;28;20376;-71
2023/07/09 01:42:08;;;;;;;0.00;0.00;;;;;;;;;;5088002;28;20501;-70
2023/07/09 01:44:35;;;;;;;1.02;0.95;;;;;;;;;;5083401;28;20206;-71
2023/07/09 01:47:03;;;;;;;0.00;0.00;;;;;;;;;;5087736;28;20245;-71
2023/07/09 01:49:32;;;;;;;0.00;0.00;;;;;;;;;;5083894;28;20206;-71
2023/07/09 01:52:00;;;;;;;0.00;0.00;;;;;;;;;;5087266;28;20243;-71
2023/07/09 01:54:26;;;;;;;0.00;0.00;;;;;;;;;;5084134;28;20254;-70
2023/07/09 01:57:01;;;;;;;0.00;0.00;;;;;;;;;;5086631;28;20487;-71
2023/07/09 01:59:27;;;;;;;0.00;0.00;;;;;;;;;;5084215;28;20213;-71
2023/07/09 02:01:57;;;;;;;0.00;0.00;;;;;;;;;;5086624;28;20269;-70
2023/07/09 02:04:27;;;;;;;0.03;0.03;;;;;;;;;;5084297;28;20203;-71
2023/07/09 02:06:53;;;;;;;0.00;0.00;;;;;;;;;;5086521;28;20298;-71
2023/07/09 02:09:19;;;;;;;0.00;0.00;;;;;;;;;;5084999;28;20282;-71
2023/07/09 02:11:46;;;;;;;0.25;0.25;;;;;;;;;;5085498;28;20506;-71
2023/07/09 02:14:13;;;;;;;0.10;0.10;;;;;;;;;;5085519;28;20203;-70
2023/07/09 02:16:40;;;;;;;0.00;0.00;;;;;;;;;;5084709;28;20478;-70
2023/07/09 02:19:06;;;;;;;0.00;0.00;;;;;;;;;;5086410;28;20267;-71
2023/07/09 02:21:33;;;;;;;0.10;0.10;;;;;;;;;;5086776;28;20238;-71
2023/07/09 02:23:59;;;;;;;0.10;0.10;;;;;;;;;;5090924;28;20242;-71
2023/07/09 02:26:25;;;;;;;0.00;0.00;;;;;;;;;;5086297;28;20281;-71
2023/07/09 02:28:52;;;;;;;0.00;0.00;;;;;;;;;;5091794;28;20271;-71
2023/07/09 02:31:19;;;;;;;0.00;0.00;;;;;;;;;;5085231;28;20309;-71
2023/07/09 02:33:46;;;;;;;0.00;0.00;;;;;;;;;;5092512;28;20287;-70
2023/07/09 02:36:12;;;;;;;0.00;0.00;;;;;;;;;;5084329;28;20289;-71
2023/07/09 02:38:38;;;;;;;0.00;0.00;;;;;;;;;;5093288;28;20206;-70
2023/07/09 02:41:05;;;;;;;0.10;0.10;;;;;;;;;;5083536;28;20313;-71
2023/07/09 02:43:31;;;;;;;0.00;0.00;;;;;;;;;;5094528;28;20231;-71
2023/07/09 02:45:57;;;;;;;0.00;0.00;;;;;;;;;;5082544;28;20279;-70
2023/07/09 02:48:25;;;;;;;0.00;0.00;;;;;;;;;;5095427;28;20274;-70
2023/07/09 02:50:52;;;;;;;0.00;0.00;;;;;;;;;;5081687;28;20242;-71
2023/07/09 02:53:18;;;;;;;0.00;0.00;;;;;;;;;;5096035;28;20243;-71
2023/07/09 02:55:44;;;;;;;0.00;0.00;;;;;;;;;;5080548;28;20254;-70
2023/07/09 02:58:10;;;;;;;0.10;0.10;;;;;;;;;;5097116;28;20235;-70
2023/07/09 03:00:37;;;;;;;0.10;0.10;;;;;;;;;;5079563;28;20260;-70
2023/07/09 03:03:05;;;;;;;0.10;0.10;;;;;;;;;;5097516;28;20222;-71
2023/07/09 03:05:34;;;;;;;0.20;0.20;;;;;;;;;;5078446;28;20309;-71
2023/07/09 03:08:00;;;;;;;0.00;0.00;;;;;;;;;;5098181;28;20210;-70
2023/07/09 03:10:28;;;;;;;0.10;0.10;;;;;;;;;;5077946;28;20263;-70
2023/07/09 03:12:55;;;;;;;0.10;0.10;;;;;;;;;;5098819;28;20227;-70
2023/07/09 03:15:21;;;;;;;0.00;0.00;;;;;;;;;;5077152;28;20240;-70
2023/07/09 03:17:47;;;;;;;0.00;0.00;;;;;;;;;;5099285;28;20265;-70
2023/07/09 03:20:14;;;;;;;0.10;0.10;;;;;;;;;;5076097;28;20286;-71
2023/07/09 03:22:42;;;;;;;0.20;0.20;;;;;;;;;;5100270;28;20195;-70
2023/07/09 03:25:08;;;;;;;0.10;0.10;;;;;;;;;;5078575;28;20212;-70
2023/07/09 03:27:34;;;;;;;0.00;0.00;;;;;;;;;;5101055;28;20218;-70
2023/07/09 03:30:01;;;;;;;0.10;0.10;;;;;;;;;;5085559;28;20303;-70
2023/07/09 03:32:27;;;;;;;0.10;0.10;;;;;;;;;;5090434;28;20516;-70
2023/07/09 03:34:54;;;;;;;0.05;0.05;;;;;;;;;;5085490;28;20534;-73
2023/07/09 03:37:20;;;;;;;0.00;0.00;;;;;;;;;;5090526;28;20245;-72
2023/07/09 03:39:48;;;;;;;0.00;0.00;;;;;;;;;;5085161;28;20223;-72
2023/07/09 03:42:14;;;;;;;0.10;0.10;;;;;;;;;;5090396;28;20242;-72
2023/07/09 03:44:40;;;;;;;0.03;0.03;;;;;;;;;;5085331;28;20213;-72
2023/07/09 03:47:07;;;;;;;0.00;0.00;;;;;;;;;;5090202;28;20237;-72
2023/07/09 03:49:33;;;;;;;0.20;0.20;;;;;;;;;;5085077;28;20206;-72
2023/07/09 03:52:00;;;;;;;0.08;0.08;;;;;;;;;;5089184;28;20287;-72
2023/07/09 03:54:27;;;;;;;0.00;0.00;;;;;;;;;;5085766;28;20278;-73
2023/07/09 03:56:55;;;;;;;0.00;0.00;;;;;;;;;;5087950;28;20236;-73
2023/07/09 03:59:21;;;;;;;0.10;0.10;;;;;;;;;;5086471;28;20210;-72
2023/07/09 04:01:48;;;;;;;0.00;0.00;;;;;;;;;;5087106;28;20239;-72
2023/07/09 04:04:14;;;;;;;0.00;0.00;;;;;;;;;;5086675;28;20225;-72
2023/07/09 04:06:41;;;;;;;0.00;0.00;;;;;;;;;;5085878;28;20248;-72
2023/07/09 04:09:07;;;;;;;0.10;0.10;;;;;;;;;;5088631;28;20213;-72
2023/07/09 04:11:33;;;;;;;0.10;0.10;;;;;;;;;;5085317;28;20306;-72
2023/07/09 04:14:01;;;;;;;0.10;0.10;;;;;;;;;;5088794;28;20234;-72
2023/07/09 04:16:27;;;;;;;0.00;0.00;;;;;;;;;;5084522;28;20249;-72
2023/07/09 04:18:54;;;;;;;0.10;0.10;;;;;;;;;;5089673;28;20276;-72
2023/07/09 04:21:20;;;;;;;0.00;0.00;;;;;;;;;;5083500;28;20271;-72
2023/07/09 04:23:46;;;;;;;0.00;0.00;;;;;;;;;;5090568;28;20206;-72
2023/07/09 04:26:14;;;;;;;0.10;0.10;;;;;;;;;;5082369;28;20248;-73
2023/07/09 04:28:40;;;;;;;0.00;0.00;;;;;;;;;;5091493;28;20501;-72
2023/07/09 04:31:08;;;;;;;0.20;0.20;;;;;;;;;;5081492;28;20632;-72
2023/07/09 04:33:35;;;;;;;0.00;0.00;;;;;;;;;;5092082;28;20251;-72
2023/07/09 04:36:02;;;;;;;0.00;0.00;;;;;;;;;;5080884;28;20293;-73
2023/07/09 04:38:28;;;;;;;0.03;0.03;;;;;;;;;;5092518;28;20210;-73
2023/07/09 04:40:55;;;;;;;0.00;0.00;;;;;;;;;;5079859;28;20573;-73
2023/07/09 04:43:21;;;;;;;0.10;0.10;;;;;;;;;;5093085;28;20396;-73
2023/07/09 04:45:48;;;;;;;0.00;0.00;;;;;;;;;;5078890;28;20573;-73
2023/07/09 04:48:15;;;;;;;0.00;0.00;;;;;;;;;;5094240;28;20271;-73
2023/07/09 04:50:42;;;;;;;0.00;0.00;;;;;;;;;;5078183;28;20240;-72
2023/07/09 04:53:08;;;;;;;0.00;0.00;;;;;;;;;;5095128;28;20194;-73
2023/07/09 04:55:34;;;;;;;0.00;0.00;;;;;;;;;;5077278;28;20245;-73
2023/07/09 04:58:01;;;;;;;0.00;0.00;;;;;;;;;;5095770;28;20272;-73
2023/07/09 05:00:27;;;;;;;0.00;0.00;;;;;;;;;;5075916;28;20246;-73
2023/07/09 05:02:54;;;;;;;0.20;0.20;;;;;;;;;;5096829;28;20230;-72
2023/07/09 05:05:21;;;;;;;0.25;0.25;;;;;;;;;;5074676;28;20213;-73
2023/07/09 05:07:48;;;;;;;0.10;0.10;;;;;;;;;;5097663;28;20262;-72
2023/07/09 05:10:14;;;;;;;0.08;0.08;;;;;;;;;;5074478;28;20274;-72
2023/07/09 05:12:48;;;;;;;0.00;0.00;;;;;;;;;;5098247;28;20200;-72
2023/07/09 05:15:14;;;;;;;0.00;0.00;;;;;;;;;;5073882;28;20233;-72
2023/07/09 05:17:40;;;;;;;0.10;0.10;;;;;;;;;;5098485;28;20198;-72
2023/07/09 05:20:07;;;;;;;0.03;0.03;;;;;;;;;;5081272;28;20281;-72
2023/07/09 05:22:38;;;;;;;0.30;0.30;;;;;;;;;;5098896;28;20249;-73
2023/07/09 05:25:05;;;;;;;0.00;0.00;;;;;;;;;;5083770;28;20436;-72
2023/07/09 05:27:31;;;;;;;0.00;0.00;;;;;;;;;;5088855;28;20239;-72
2023/07/09 05:29:58;;;;;;;0.00;0.00;;;;;;;;;;5083681;28;20209;-72
2023/07/09 05:32:24;;;;;;;0.00;0.00;;;;;;;;;;5088958;28;20271;-72
2023/07/09 05:34:50;;;;;;;0.00;0.00;;;;;;;;;;5083478;28;20206;-72
2023/07/09 05:37:17;;;;;;;0.00;0.00;;;;;;;;;;5088691;28;20256;-73
2023/07/09 05:39:44;;;;;;;0.00;0.00;;;;;;;;;;5083522;28;20436;-72
2023/07/09 05:42:11;;;;;;;0.00;0.00;;;;;;;;;;5088731;28;20249;-72
2023/07/09 05:44:38;;;;;;;0.00;0.00;;;;;;;;;;5083604;28;20381;-72
2023/07/09 05:47:04;;;;;;;0.08;0.08;;;;;;;;;;5088162;28;20655;-73
2023/07/09 05:49:31;;;;;;;0.00;0.00;;;;;;;;;;5083821;28;20388;-72
2023/07/09 05:51:57;;;;;;;0.00;0.00;;;;;;;;;;5087280;28;20526;-72
2023/07/09 05:54:23;;;;;;;0.00;0.00;;;;;;;;;;5084447;28;20397;-72
2023/07/09 05:56:51;;;;;;;0.00;0.00;;;;;;;;;;5089702;28;20257;-72
2023/07/09 05:59:17;;;;;;;0.00;0.00;;;;;;;;;;5089382;28;20298;-72
2023/07/09 06:01:44;;;;;;;0.00;0.00;;;;;;;;;;5088975;28;20234;-73
2023/07/09 06:04:11;;;;;;;0.08;0.08;;;;;;;;;;5090348;28;20218;-72
2023/07/09 06:06:37;;;;;;;0.00;0.00;;;;;;;;;;5088479;28;20252;-72
2023/07/09 06:09:04;;;;;;;0.00;0.00;;;;;;;;;;5090510;28;20241;-72
2023/07/09 06:11:30;;;;;;;0.00;0.00;;;;;;;;;;5087312;28;20254;-72
2023/07/09 06:13:58;;;;;;;0.00;0.00;;;;;;;;;;5091372;28;20219;-72
2023/07/09 06:16:25;;;;;;;0.13;0.13;;;;;;;;;;5086487;28;20250;-73
2023/07/09 06:18:51;;;;;;;0.00;0.00;;;;;;;;;;5092208;28;20241;-72
2023/07/09 06:21:17;;;;;;;0.00;0.00;;;;;;;;;;5085488;28;20246;-72
2023/07/09 06:23:45;;;;;;;0.00;0.00;;;;;;;;;;5092906;28;20203;-73
2023/07/09 06:26:12;;;;;;;0.03;0.03;;;;;;;;;;5084645;28;20297;-73
2023/07/09 06:28:38;;;;;;;0.00;0.00;;;;;;;;;;5093514;28;20237;-72
2023/07/09 06:31:06;;;;;;;0.00;0.00;;;;;;;;;;5083600;28;20309;-72
2023/07/09 06:33:33;;;;;;;0.00;0.00;;;;;;;;;;5094436;28;20279;-72
2023/07/09 06:36:00;;;;;;;0.10;0.10;;;;;;;;;;5082797;28;20281;-72
2023/07/09 06:38:27;;;;;;;0.00;0.00;;;;;;;;;;5094968;28;20241;-72
2023/07/09 06:40:54;;;;;;;0.82;0.82;;;;;;;;;;5081512;28;20244;-72
2023/07/09 06:43:20;;;;;;;0.00;0.00;;;;;;;;;;5095963;28;20231;-72
2023/07/09 06:45:50;;;;;;;0.00;0.00;;;;;;;;;;5080790;28;20309;-72
2023/07/09 06:48:18;;;;;;;0.00;0.00;;;;;;;;;;5096010;28;20230;-72
2023/07/09 06:50:45;;;;;;;0.00;0.00;;;;;;;;;;5080856;28;20238;-72
2023/07/09 06:53:11;;;;;;;0.00;0.00;;;;;;;;;;5096731;28;20204;-78
2023/07/09 06:55:38;;;;;;;0.73;0.73;;;;;;;;;;5079746;28;20265;-77
2023/07/09 06:58:04;;;;;;;0.00;0.00;;;;;;;;;;5097983;28;20397;-74
2023/07/09 07:00:31;;;;;;;0.00;0.00;;;;;;;;;;5078612;28;20405;-73
2023/07/09 07:02:58;;;;;;;0.00;0.00;;;;;;;;;;5098906;28;20226;-79
2023/07/09 07:05:26;;;;;;;0.10;0.10;;;;;;;;;;5077124;28;20260;-77
2023/07/09 07:07:53;;;;;;;0.00;0.00;;;;;;;;;;5099052;28;20246;-78
2023/07/09 07:10:19;;;;;;;0.00;0.00;;;;;;;;;;5077108;28;20203;-77
2023/07/09 07:12:47;;;;;;;0.00;0.00;;;;;;;;;;5099698;28;20192;-78
2023/07/09 07:15:14;;;;;;;0.00;0.00;;;;;;;;;;5076432;28;20275;-77
2023/07/09 07:17:41;;;;;;;0.00;0.00;;;;;;;;;;5100500;28;20519;-79
2023/07/09 07:20:08;;;;;;;0.03;0.03;;;;;;;;;;5080500;28;20210;-77
2023/07/09 07:22:36;;;;;;;0.00;0.00;;;;;;;;;;5101146;28;20278;-78
2023/07/09 07:25:03;;;;;;;0.00;0.00;;;;;;;;;;5085807;28;20524;-79
2023/07/09 07:27:30;;;;;;;0.00;0.00;;;;;;;;;;5090721;28;20302;-78
2023/07/09 07:29:57;;;;;;;0.00;0.00;;;;;;;;;;5085698;28;20399;-78
2023/07/09 07:32:23;;;;;;;2.30;1.17;;;;;;;;;;5090683;28;20455;-78
2023/07/09 07:34:49;;;;;;;0.00;0.00;;;;;;;;;;5085241;28;20215;-78
2023/07/09 07:37:16;;;;;;;0.00;0.00;;;;;;;;;;5090623;28;20242;-78
2023/07/09 07:39:44;;;;;;;0.00;0.00;;;;;;;;;;5085367;28;20270;-78
2023/07/09 07:42:11;;;;;;;0.00;0.00;;;;;;;;;;5091068;28;20434;-78
2023/07/09 07:44:37;;;;;;;0.00;0.00;;;;;;;;;;5085014;28;20206;-78
2023/07/09 07:47:04;;;;;;;0.00;0.00;;;;;;;;;;5089850;28;20301;-78
2023/07/09 07:49:30;;;;;;;0.00;0.00;;;;;;;;;;5085229;28;20271;-78
2023/07/09 07:51:57;;;;;;;0.00;0.00;;;;;;;;;;5088687;28;20300;-78
2023/07/09 07:54:23;;;;;;;0.05;0.05;;;;;;;;;;5086271;28;20283;-78
2023/07/09 07:56:51;;;;;;;0.00;0.00;;;;;;;;;;5087683;28;20317;-78
2023/07/09 07:59:17;;;;;;;0.00;0.00;;;;;;;;;;5086961;28;20241;-78
2023/07/09 08:01:44;;;;;;;0.00;0.00;;;;;;;;;;5086786;28;20250;-78
2023/07/09 08:04:10;;;;;;;0.15;0.15;;;;;;;;;;5087709;28;20282;-78
2023/07/09 08:06:37;;;;;;;0.00;0.00;;;;;;;;;;5085946;28;20238;-78
2023/07/09 08:09:03;;;;;;;0.00;0.00;;;;;;;;;;5088755;28;20226;-78
2023/07/09 08:11:32;;;;;;;0.00;0.00;;;;;;;;;;5084900;28;20250;-77
2023/07/09 08:14:00;;;;;;;0.00;0.00;;;;;;;;;;5089255;28;20215;-77
2023/07/09 08:16:28;;;;;;;0.00;0.00;;;;;;;;;;5084392;28;20235;-77
2023/07/09 08:18:54;;;;;;;0.00;0.00;;;;;;;;;;5088807;28;20279;-77
2023/07/09 08:21:20;;;;;;;0.00;0.00;;;;;;;;;;5083423;28;20254;-77
2023/07/09 08:23:47;;;;;;;0.00;0.00;;;;;;;;;;5090556;28;20393;-77
2023/07/09 08:26:13;;;;;;;0.10;0.10;;;;;;;;;;5082547;28;20250;-77
2023/07/09 08:28:40;;;;;;;0.00;0.00;;;;;;;;;;5091325;28;20271;-78
2023/07/09 08:31:09;;;;;;;0.00;0.00;;;;;;;;;;5081402;28;20310;-77
2023/07/09 08:33:36;;;;;;;0.00;0.00;;;;;;;;;;5091777;28;20235;-77
2023/07/09 08:36:02;;;;;;;0.00;0.00;;;;;;;;;;5080916;28;20242;-78
2023/07/09 08:38:29;;;;;;;0.00;0.00;;;;;;;;;;5092745;28;20203;-77
2023/07/09 08:40:58;;;;;;;0.00;0.00;;;;;;;;;;5079674;28;20245;-77
2023/07/09 08:43:30;;;;;;;0.00;0.00;;;;;;;;;;5093209;28;20445;-78
2023/07/09 08:45:59;;;;;;;0.00;0.00;;;;;;;;;;5080162;28;20488;-78
2023/07/09 08:48:29;;;;;;;0.00;0.00;;;;;;;;;;5093070;28;20261;-78
2023/07/09 08:50:58;;;;;;;0.00;0.00;;;;;;;;;;5079973;28;20488;-78
2023/07/09 08:53:28;;;;;;;0.00;0.00;;;;;;;;;;5093015;28;20241;-78
2023/07/09 08:55:55;;;;;;;0.00;0.00;;;;;;;;;;5079294;28;20254;-78
2023/07/09 08:58:24;;;;;;;0.00;0.00;;;;;;;;;;5093091;28;20229;-78
2023/07/09 09:00:54;;;;;;;0.22;0.22;;;;;;;;;;5078856;28;20265;-77
2023/07/09 09:03:27;;;;;;;0.00;0.00;;;;;;;;;;5093387;28;20210;-77
2023/07/09 09:05:55;;;;;;;0.00;0.00;;;;;;;;;;5079131;28;20239;-77
2023/07/09 09:08:27;;;;;;;0.00;0.00;;;;;;;;;;5093092;28;20207;-78
2023/07/09 09:10:57;;;;;;;0.00;0.00;;;;;;;;;;5079504;28;20237;-77
2023/07/09 09:13:25;;;;;;;0.40;0.40;;;;;;;;;;5092857;28;20211;-78
2023/07/09 09:15:52;;;;;;;0.00;0.00;;;;;;;;;;5079058;28;20301;-77
2023/07/09 09:18:21;;;;;;;0.00;0.00;;;;;;;;;;5093386;28;20224;-78
2023/07/09 09:20:49;;;;;;;0.00;0.00;;;;;;;;;;5077893;28;20237;-77
2023/07/09 09:23:17;;;;;;;0.00;0.00;;;;;;;;;;5094110;28;20231;-77
2023/07/09 09:25:46;;;;;;;0.00;0.00;;;;;;;;;;5077874;28;20254;-77
2023/07/09 09:28:14;;;;;;;0.00;0.00;;;;;;;;;;5094130;28;20278;-77
2023/07/09 09:30:40;;;;;;;0.10;0.10;;;;;;;;;;5080925;28;20238;-78
2023/07/09 09:33:08;;;;;;;0.00;0.00;;;;;;;;;;5099239;28;20210;-77
2023/07/09 09:35:36;;;;;;;0.00;0.00;;;;;;;;;;5080696;28;20245;-78
2023/07/09 09:38:04;;;;;;;0.00;0.00;;;;;;;;;;5099612;28;20254;-78
2023/07/09 09:40:35;;;;;;;0.00;0.00;;;;;;;;;;5080357;28;20247;-78
2023/07/09 09:43:02;;;;;;;0.00;0.00;;;;;;;;;;5099607;28;20191;-77
2023/07/09 09:45:32;;;;;;;0.00;0.00;;;;;;;;;;5079561;28;20230;-78
2023/07/09 09:47:59;;;;;;;0.00;0.00;;;;;;;;;;5100166;28;20188;-78
2023/07/09 09:50:28;;;;;;;0.00;0.00;;;;;;;;;;5079474;28;20538;-77
2023/07/09 09:52:54;;;;;;;0.00;0.00;;;;;;;;;;5100365;28;20234;-78
2023/07/09 09:55:23;;;;;;;0.00;0.00;;;;;;;;;;5078578;28;20271;-77
2023/07/09 09:57:52;;;;;;;0.00;0.00;;;;;;;;;;5100894;28;20453;-78
2023/07/09 10:00:19;;;;;;;0.00;0.00;;;;;;;;;;5078054;28;20233;-77
2023/07/09 10:02:46;;;;;;;0.00;0.00;;;;;;;;;;5101610;28;20223;-78
2023/07/09 10:05:13;;;;;;;0.00;0.00;;;;;;;;;;5076793;28;20257;-78
2023/07/09 10:07:42;;;;;;;0.00;0.00;;;;;;;;;;5102047;28;20254;-78
2023/07/09 10:10:11;;;;;;;0.00;0.00;;;;;;;;;;5078089;28;20270;-78
2023/07/09 10:12:41;;;;;;;0.00;0.00;;;;;;;;;;5102041;28;20257;-78
2023/07/09 10:15:17;;;;;;;0.00;0.00;;;;;;;;;;5084694;28;20199;-77
2023/07/09 10:17:46;;;;;;;0.00;0.00;;;;;;;;;;5086639;28;20282;-78
2023/07/09 10:20:19;;;;;;;0.00;0.00;;;;;;;;;;5077329;28;20278;-77
2023/07/09 10:22:50;;;;;;;0.00;0.00;;;;;;;;;;5100966;28;20382;-78
2023/07/09 10:25:21;;;;;;;0.00;0.00;;;;;;;;;;5077775;28;20274;-77
2023/07/09 10:27:54;;;;;;;0.00;0.00;;;;;;;;;;5100604;28;20259;-78
2023/07/09 10:30:28;;;;;;;0.00;0.00;;;;;;;;;;5078028;28;20237;-78
2023/07/09 10:33:00;;;;;;;0.00;0.00;;;;;;;;;;5099599;28;20424;-78
2023/07/09 10:35:33;;;;;;;0.00;0.00;;;;;;;;;;5078979;28;20291;-78
2023/07/09 10:38:04;;;;;;;0.20;0.20;;;;;;;;;;5098646;28;20227;-77
2023/07/09 10:40:34;;;;;;;0.00;0.00;;;;;;;;;;5078586;28;20420;-78
2023/07/09 10:43:02;;;;;;;0.00;0.00;;;;;;;;;;5098427;28;20191;-78
2023/07/09 10:45:32;;;;;;;0.00;0.00;;;;;;;;;;5078922;28;20251;-78
2023/07/09 10:48:00;;;;;;;1.38;1.35;;;;;;;;;;5098621;28;20188;-78
2023/07/09 10:50:29;;;;;;;0.00;0.00;;;;;;;;;;5078705;28;20551;-78
2023/07/09 10:52:57;;;;;;;0.10;0.10;;;;;;;;;;5099076;28;20436;-78
2023/07/09 10:55:27;;;;;;;0.00;0.00;;;;;;;;;;5078033;28;20210;-78
2023/07/09 10:57:56;;;;;;;0.00;0.00;;;;;;;;;;5099164;28;20467;-78
2023/07/09 11:00:25;;;;;;;0.00;0.00;;;;;;;;;;5077679;28;20227;-78
2023/07/09 11:02:59;;;;;;;0.00;0.00;;;;;;;;;;5099373;28;20360;-78
2023/07/09 11:05:25;;;;;;;0.00;0.00;;;;;;;;;;5077689;28;20455;-78
2023/07/09 11:07:56;;;;;;;0.00;0.00;;;;;;;;;;5099399;28;20413;-78
2023/07/09 11:10:24;;;;;;;0.00;0.00;;;;;;;;;;5077707;28;20211;-78
2023/07/09 11:12:58;;;;;;;0.00;0.00;;;;;;;;;;5099337;28;20226;-78
2023/07/09 11:15:27;;;;;;;0.00;0.00;;;;;;;;;;5077196;28;20204;-78
2023/07/09 11:17:58;;;;;;;0.00;0.00;;;;;;;;;;5098915;28;20438;-78
2023/07/09 11:20:25;;;;;;;0.00;0.00;;;;;;;;;;5077621;28;20245;-77
2023/07/09 11:22:53;;;;;;;0.00;0.00;;;;;;;;;;5098719;28;20259;-78
2023/07/09 11:25:28;;;;;;;0.00;0.00;;;;;;;;;;5076977;28;20266;-77
2023/07/09 11:27:56;;;;;;;0.00;0.00;;;;;;;;;;5098598;28;20218;-76
2023/07/09 11:30:25;;;;;;;0.00;0.00;;;;;;;;;;5077474;28;20245;-76
2023/07/09 11:32:58;;;;;;;0.00;0.00;;;;;;;;;;5098913;28;20234;-75
2023/07/09 11:35:25;;;;;;;0.00;0.00;;;;;;;;;;5077421;28;20215;-75
2023/07/09 11:37:52;;;;;;;0.00;0.00;;;;;;;;;;5098377;28;20211;-76
2023/07/09 11:40:19;;;;;;;0.00;0.00;;;;;;;;;;5076659;28;20249;-76
2023/07/09 11:42:50;;;;;;;0.00;0.00;;;;;;;;;;5098946;28;20219;-75
2023/07/09 11:45:18;;;;;;;0.00;0.00;;;;;;;;;;5076081;28;20203;-76
2023/07/09 11:47:47;;;;;;;0.00;0.00;;;;;;;;;;5099170;28;20263;-78
2023/07/09 11:50:21;;;;;;;0.00;0.00;;;;;;;;;;5075720;28;20270;-77
2023/07/09 11:52:50;;;;;;;0.00;0.00;;;;;;;;;;5099198;28;20421;-73
2023/07/09 11:55:21;;;;;;;0.00;0.00;;;;;;;;;;5076023;28;20215;-77
2023/07/09 11:57:48;;;;;;;0.00;0.00;;;;;;;;;;5098659;28;20219;-74
2023/07/09 12:00:15;;;;;;;0.00;0.00;;;;;;;;;;5075154;28;20578;-75
2023/07/09 12:02:42;;;;;;;0.00;0.00;;;;;;;;;;5100061;28;20267;-76
2023/07/09 12:05:08;;;;;;;0.20;0.20;;;;;;;;;;5077701;28;20415;-76
2023/07/09 12:07:36;;;;;;;0.00;0.00;;;;;;;;;;5100121;28;20439;-78
2023/07/09 12:10:04;;;;;;;0.00;0.00;;;;;;;;;;5085141;28;20384;-75
2023/07/09 12:12:31;;;;;;;0.00;0.00;;;;;;;;;;5090083;28;20294;-74
2023/07/09 12:14:57;;;;;;;0.00;0.00;;;;;;;;;;5084682;28;20274;-76
2023/07/09 12:17:25;;;;;;;0.00;0.00;;;;;;;;;;5089733;28;22181;-76
2023/07/09 12:19:52;;;;;;;0.00;0.00;;;;;;;;;;5084315;28;20512;-74
2023/07/09 12:22:20;;;;;;;0.00;0.00;;;;;;;;;;5089636;28;20244;-74
2023/07/09 12:24:49;;;;;;;0.00;0.00;;;;;;;;;;5084504;28;20229;-74
2023/07/09 12:27:20;;;;;;;0.00;0.00;;;;;;;;;;5089604;28;20246;-75
2023/07/09 12:29:46;;;;;;;0.25;0.25;;;;;;;;;;5084176;28;20242;-74
2023/07/09 12:32:13;;;;;;;0.00;0.00;;;;;;;;;;5089380;28;20246;-74
2023/07/09 12:34:40;;;;;;;0.00;0.00;;;;;;;;;;5084254;28;20214;-74
2023/07/09 12:37:12;;;;;;;0.00;0.00;;;;;;;;;;5089168;28;20238;-74
2023/07/09 12:39:39;;;;;;;0.00;0.00;;;;;;;;;;5084368;28;20226;-74
2023/07/09 12:42:12;;;;;;;0.00;0.00;;;;;;;;;;5088998;28;20288;-74
2023/07/09 12:44:38;;;;;;;0.15;0.15;;;;;;;;;;5083005;28;20208;-74
2023/07/09 12:47:05;;;;;;;0.00;0.00;;;;;;;;;;5088891;28;20313;-74
2023/07/09 12:49:37;;;;;;;0.03;0.03;;;;;;;;;;5084328;28;20230;-75
2023/07/09 12:52:04;;;;;;;0.00;0.00;;;;;;;;;;5088400;28;20500;-75
2023/07/09 12:54:31;;;;;;;0.00;0.00;;;;;;;;;;5084215;28;20305;-74
2023/07/09 12:56:59;;;;;;;0.00;0.00;;;;;;;;;;5087690;28;20242;-75
2023/07/09 12:59:28;;;;;;;0.00;0.00;;;;;;;;;;5084765;28;20294;-75
2023/07/09 13:01:56;;;;;;;0.00;0.00;;;;;;;;;;5087270;28;20305;-75
2023/07/09 13:04:28;;;;;;;0.00;0.00;;;;;;;;;;5084399;28;20260;-75
2023/07/09 13:06:59;;;;;;;0.00;0.00;;;;;;;;;;5087249;28;20305;-74
2023/07/09 13:09:25;;;;;;;0.00;0.00;;;;;;;;;;5084814;28;20199;-75
2023/07/09 13:11:52;;;;;;;0.00;0.00;;;;;;;;;;5086840;28;20317;-75
2023/07/09 13:14:20;;;;;;;0.00;0.00;;;;;;;;;;5085611;28;20276;-72
2023/07/09 13:16:48;;;;;;;0.00;0.00;;;;;;;;;;5086035;28;20242;-78
2023/07/09 13:19:14;;;;;;;0.00;0.00;;;;;;;;;;5085981;28;20468;-78
2023/07/09 13:21:41;;;;;;;0.00;0.00;;;;;;;;;;5085220;28;20243;-78
2023/07/09 13:24:12;;;;;;;0.10;0.10;;;;;;;;;;5086770;28;20196;-78
2023/07/09 13:26:39;;;;;;;0.00;0.00;;;;;;;;;;5085094;28;20441;-78
2023/07/09 13:29:11;;;;;;;0.15;0.15;;;;;;;;;;5087504;28;20456;-78
2023/07/09 13:31:37;;;;;;;0.00;0.00;;;;;;;;;;5084827;28;20243;-80
2023/07/09 13:34:14;;;;;;;0.00;0.00;;;;;;;;;;5087263;28;20203;-80
2023/07/09 13:36:41;;;;;;;0.00;0.00;;;;;;;;;;5085210;28;20445;-80
2023/07/09 13:39:08;;;;;;;0.00;0.00;;;;;;;;;;5086790;28;20298;-79
2023/07/09 13:41:35;;;;;;;0.00;0.00;;;;;;;;;;5084272;28;20306;-80
2023/07/09 13:44:02;;;;;;;0.00;0.00;;;;;;;;;;5087641;28;20383;-79
2023/07/09 13:46:28;;;;;;;0.00;0.00;;;;;;;;;;5083242;28;20234;-80
2023/07/09 13:48:56;;;;;;;0.00;0.00;;;;;;;;;;5088332;28;20271;-79
2023/07/09 13:51:24;;;;;;;0.00;0.00;;;;;;;;;;5082691;28;20288;-80
2023/07/09 13:53:52;;;;;;;0.00;0.00;;;;;;;;;;5089155;28;20210;-79
2023/07/09 13:56:18;;;;;;;0.00;0.00;;;;;;;;;;5082155;28;20238;-79
2023/07/09 13:58:45;;;;;;;0.00;0.00;;;;;;;;;;5089370;28;20254;-79
2023/07/09 14:01:12;;;;;;;0.00;0.00;;;;;;;;;;5081232;28;20300;-78
2023/07/09 14:03:38;;;;;;;0.00;0.00;;;;;;;;;;5090226;28;20204;-79
2023/07/09 14:06:05;;;;;;;0.00;0.00;;;;;;;;;;5080179;28;20269;-79
2023/07/09 14:08:33;;;;;;;0.10;0.10;;;;;;;;;;5091586;28;20388;-81
2023/07/09 14:10:59;;;;;;;0.00;0.00;;;;;;;;;;5079626;28;20239;-79
2023/07/09 14:13:26;;;;;;;0.00;0.00;;;;;;;;;;5092132;28;20250;-83
2023/07/09 14:15:52;;;;;;;0.00;0.00;;;;;;;;;;5079204;28;20238;-84
2023/07/09 14:18:20;;;;;;;17.90;8.02;;;;;;;;;;5096438;28;20294;-82
2023/07/09 14:20:47;;;;;;;0.00;0.00;;;;;;;;;;5081794;28;20258;-82
2023/07/09 14:23:14;;;;;;;0.00;0.00;;;;;;;;;;5097160;28;20274;-79
2023/07/09 14:25:42;;;;;;;0.00;0.00;;;;;;;;;;5080972;28;20483;-80
2023/07/09 14:28:11;;;;;;;0.00;0.00;;;;;;;;;;5097657;28;20192;-80
2023/07/09 14:30:37;;;;;;;0.00;0.00;;;;;;;;;;5080137;28;20446;-80
2023/07/09 14:33:03;;;;;;;0.00;0.00;;;;;;;;;;5098252;28;20258;-81
2023/07/09 14:35:30;;;;;;;0.00;0.00;;;;;;;;;;5079235;28;20503;-80
2023/07/09 14:37:59;;;;;;;0.00;0.00;;;;;;;;;;5099264;28;20279;-80
2023/07/09 14:40:25;;;;;;;0.00;0.00;;;;;;;;;;5078623;28;20211;-80
2023/07/09 14:42:53;;;;;;;0.00;0.00;;;;;;;;;;5099601;28;20263;-81
2023/07/09 14:45:21;;;;;;;0.00;0.00;;;;;;;;;;5077704;28;20211;-80